createdAt,value
2019-03-09T00:01:08.507Z,75.52
2019-03-09T00:03:35.402Z,75.28
2019-03-09T00:06:02.238Z,75.04
2019-03-09T00:08:28.929Z,75.18
2019-03-09T00:10:55.468Z,74.96
2019-03-09T00:13:22.009Z,75.22
2019-03-09T00:15:48.490Z,75.06
2019-03-09T00:18:15.608Z,74.72
2019-03-09T00:20:42.193Z,74.90
2019-03-09T00:23:29.373Z,74.54
2019-03-09T00:26:18.419Z,74.56
2019-03-09T00:28:50.947Z,74.60
2019-03-09T00:31:43.023Z,74.20
2019-03-09T00:34:09.546Z,74.36
2019-03-09T00:36:36.448Z,73.87
2019-03-09T00:39:04.338Z,73.98
2019-03-09T00:41:30.859Z,74.02
2019-03-09T00:43:57.667Z,73.64
2019-03-09T00:46:24.263Z,73.56
2019-03-09T00:48:50.788Z,73.38
2019-03-09T00:51:17.430Z,73.40
2019-03-09T00:53:44.220Z,73.30
2019-03-09T00:56:12.310Z,73.43
2019-03-09T00:58:39.057Z,73.11
2019-03-09T01:01:05.958Z,72.81
2019-03-09T01:03:32.456Z,72.87
2019-03-09T01:05:58.953Z,72.78
2019-03-09T01:08:26.055Z,72.95
2019-03-09T01:10:53.162Z,73.06
2019-03-09T01:13:19.972Z,72.82
2019-03-09T01:15:46.771Z,72.79
2019-03-09T01:18:13.698Z,72.51
2019-03-09T01:20:40.367Z,72.34
2019-03-09T01:23:07.139Z,72.25
2019-03-09T01:25:33.987Z,72.33
2019-03-09T01:28:01.519Z,72.13
2019-03-09T01:30:28.365Z,71.78
2019-03-09T01:32:55.192Z,72.06
2019-03-09T01:35:21.996Z,72.13
2019-03-09T01:37:49.040Z,72.21
2019-03-09T01:40:16.093Z,71.67
2019-03-09T01:42:42.899Z,71.83
2019-03-09T01:45:10.393Z,71.86
2019-03-09T01:47:37.231Z,71.53
2019-03-09T01:50:04.463Z,71.16
2019-03-09T01:52:31.292Z,70.48
2019-03-09T01:54:58.213Z,70.20
2019-03-09T01:57:25.052Z,69.94
2019-03-09T01:59:51.830Z,69.61
2019-03-09T02:02:19.002Z,69.39
2019-03-09T02:04:46.034Z,69.16
2019-03-09T02:07:13.923Z,68.84
2019-03-09T02:09:41.004Z,68.71
2019-03-09T02:12:07.845Z,68.73
2019-03-09T02:14:34.723Z,68.65
2019-03-09T02:17:01.251Z,68.53
2019-03-09T02:19:28.907Z,68.85
2019-03-09T02:21:55.427Z,68.60
2019-03-09T02:24:22.086Z,68.68
2019-03-09T02:26:48.909Z,68.66
2019-03-09T02:29:15.453Z,68.63
2019-03-09T02:31:42.104Z,68.34
2019-03-09T02:34:08.842Z,68.14
2019-03-09T02:36:35.345Z,68.04
2019-03-09T02:39:14.822Z,68.02
2019-03-09T02:41:41.586Z,68.00
2019-03-09T02:44:08.182Z,67.96
2019-03-09T02:46:34.840Z,68.30
2019-03-09T02:49:01.622Z,68.41
2019-03-09T02:51:28.213Z,68.44
2019-03-09T02:53:55.768Z,67.94
2019-03-09T02:56:22.485Z,68.08
2019-03-09T02:58:49.025Z,67.89
2019-03-09T03:01:44.216Z,67.93
2019-03-09T03:04:10.696Z,67.84
2019-03-09T03:06:37.171Z,67.96
2019-03-09T03:09:04.758Z,68.29
2019-03-09T03:11:31.189Z,68.67
2019-03-09T03:13:58.359Z,68.52
2019-03-09T03:16:30.037Z,69.07
2019-03-09T03:18:56.909Z,69.28
2019-03-09T03:21:23.698Z,69.17
2019-03-09T03:23:50.226Z,69.26
2019-03-09T03:26:16.963Z,69.35
2019-03-09T03:28:43.893Z,69.40
2019-03-09T03:31:10.439Z,69.67
2019-03-09T03:33:37.005Z,69.55
2019-03-09T03:36:03.626Z,69.40
2019-03-09T03:38:32.411Z,69.23
2019-03-09T03:40:58.986Z,69.10
2019-03-09T03:43:25.586Z,68.80
2019-03-09T03:45:52.350Z,68.46
2019-03-09T03:48:20.187Z,68.55
2019-03-09T03:50:46.864Z,68.24
2019-03-09T03:53:13.310Z,67.85
2019-03-09T03:55:39.916Z,67.11
2019-03-09T03:58:07.608Z,67.19
2019-03-09T04:00:34.230Z,67.21
2019-03-09T04:03:00.724Z,66.83
2019-03-09T04:05:27.234Z,66.70
2019-03-09T04:07:54.431Z,66.71
2019-03-09T04:10:21.422Z,66.71
2019-03-09T04:12:48.121Z,66.80
2019-03-09T04:15:15.090Z,66.81
2019-03-09T04:17:41.805Z,66.33
2019-03-09T04:20:08.640Z,66.94
2019-03-09T04:22:35.273Z,67.31
2019-03-09T04:25:02.269Z,67.33
2019-03-09T04:27:28.852Z,67.62
2019-03-09T04:29:55.594Z,67.39
2019-03-09T04:32:22.220Z,67.80
2019-03-09T04:34:48.851Z,67.89
2019-03-09T04:37:15.447Z,68.33
2019-03-09T04:39:43.210Z,69.50
2019-03-09T04:42:09.898Z,70.21
2019-03-09T04:44:36.809Z,71.37
2019-03-09T04:47:03.592Z,71.87
2019-03-09T04:49:30.343Z,73.37
2019-03-09T04:51:56.961Z,73.94
2019-03-09T04:54:23.600Z,74.68
2019-03-09T04:56:50.608Z,75.57
2019-03-09T04:59:17.528Z,75.63
2019-03-09T05:01:44.241Z,76.86
2019-03-09T05:04:45.450Z,77.80
2019-03-09T05:07:27.431Z,77.69
2019-03-09T05:10:15.708Z,77.94
2019-03-09T05:12:42.686Z,78.59
2019-03-09T05:15:10.116Z,79.53
2019-03-09T05:17:36.927Z,80.24
2019-03-09T05:20:04.208Z,80.37
2019-03-09T05:22:30.993Z,79.87
2019-03-09T05:24:57.590Z,80.53
2019-03-09T05:27:25.044Z,80.87
2019-03-09T05:29:52.288Z,80.87
2019-03-09T05:32:19.128Z,81.70
2019-03-09T05:34:45.767Z,81.67
2019-03-09T05:37:12.293Z,81.37
2019-03-09T05:39:38.912Z,81.49
2019-03-09T05:42:05.481Z,81.50
2019-03-09T05:44:32.582Z,81.73
2019-03-09T05:46:59.542Z,82.88
2019-03-09T05:49:26.127Z,83.20
2019-03-09T05:52:46.239Z,84.09
2019-03-09T05:55:18.048Z,84.44
2019-03-09T05:57:45.990Z,84.06
2019-03-09T06:00:14.993Z,84.55
2019-03-09T06:02:42.766Z,84.09
2019-03-09T06:05:33.420Z,84.04
2019-03-09T06:08:00.819Z,83.71
2019-03-09T06:10:27.788Z,82.84
2019-03-09T06:12:56.353Z,83.30
2019-03-09T06:15:25.135Z,82.89
2019-03-09T06:17:52.271Z,82.78
2019-03-09T06:20:20.075Z,82.44
2019-03-09T06:22:47.852Z,81.92
2019-03-09T06:25:15.437Z,81.85
2019-03-09T06:27:42.740Z,81.78
2019-03-09T06:30:12.219Z,81.18
2019-03-09T06:33:16.670Z,81.19
2019-03-09T06:35:44.692Z,80.82
2019-03-09T06:38:34.851Z,80.84
2019-03-09T06:41:13.723Z,81.18
2019-03-09T06:43:40.564Z,80.99
2019-03-09T06:46:07.633Z,81.51
2019-03-09T06:48:34.910Z,81.73
2019-03-09T06:51:02.236Z,81.58
2019-03-09T06:53:29.512Z,81.20
2019-03-09T06:55:56.417Z,80.96
2019-03-09T06:58:25.489Z,81.19
2019-03-09T07:00:54.210Z,81.06
2019-03-09T07:03:22.364Z,81.18
2019-03-09T07:05:50.659Z,81.15
2019-03-09T07:08:18.924Z,80.59
2019-03-09T07:11:07.722Z,80.51
2019-03-09T07:14:27.998Z,79.95
2019-03-09T07:18:36.814Z,80.38
2019-03-09T07:20:12.935Z,79.60
2019-03-09T07:23:38.600Z,79.78
2019-03-09T07:26:17.023Z,79.77
2019-03-09T07:29:07.620Z,79.67
2019-03-09T07:31:44.114Z,78.99
2019-03-09T07:35:10.040Z,79.15
2019-03-09T07:41:14.901Z,78.85
2019-03-09T07:48:04.681Z,79.03
2019-03-09T07:50:25.885Z,78.43
2019-03-09T07:52:53.199Z,78.55
2019-03-09T07:55:20.040Z,78.42
2019-03-09T07:57:46.878Z,78.01
2019-03-09T08:00:15.651Z,77.94
2019-03-09T08:02:43.752Z,78.06
2019-03-09T08:05:11.567Z,77.90
2019-03-09T08:07:38.553Z,77.30
2019-03-09T08:10:07.561Z,77.54
2019-03-09T08:12:34.565Z,77.68
2019-03-09T08:15:01.591Z,77.38
2019-03-09T08:17:46.571Z,77.23
2019-03-09T08:20:13.600Z,76.39
2019-03-09T08:22:43.855Z,74.59
2019-03-09T08:25:10.958Z,73.96
2019-03-09T08:27:39.222Z,73.07
2019-03-09T08:30:15.127Z,73.41
2019-03-09T08:32:43.210Z,73.35
2019-03-09T08:35:10.962Z,73.29
2019-03-09T08:37:38.091Z,72.87
2019-03-09T08:40:05.600Z,72.57
2019-03-09T08:42:32.503Z,71.60
2019-03-09T08:44:59.565Z,69.33
2019-03-09T08:47:27.655Z,68.46
2019-03-09T08:50:23.027Z,67.24
2019-03-09T08:53:03.648Z,67.08
2019-03-09T08:55:48.736Z,67.03
2019-03-09T08:58:28.441Z,66.79
2019-03-09T09:01:04.856Z,65.63
2019-03-09T09:03:53.436Z,65.27
2019-03-09T09:06:20.905Z,64.34
2019-03-09T09:09:11.712Z,62.69
2019-03-09T09:11:38.390Z,61.79
2019-03-09T09:14:05.002Z,60.85
2019-03-09T09:16:33.801Z,61.89
2019-03-09T09:19:03.527Z,61.39
2019-03-09T09:21:30.216Z,61.55
2019-03-09T09:24:05.891Z,60.84
2019-03-09T09:26:35.786Z,59.80
2019-03-09T09:32:26.917Z,59.10
2019-03-09T09:34:57.205Z,58.61
2019-03-09T09:37:25.206Z,58.80
2019-03-09T09:39:54.152Z,59.07
2019-03-09T09:42:26.234Z,59.07
2019-03-09T09:44:54.783Z,58.75
2019-03-09T09:47:22.866Z,58.07
2019-03-09T09:49:54.519Z,57.43
2019-03-09T09:52:30.792Z,56.13
2019-03-09T09:54:59.924Z,55.92
2019-03-09T09:57:29.929Z,55.45
2019-03-09T10:00:01.806Z,56.02
2019-03-09T10:02:29.852Z,56.14
2019-03-09T10:04:59.532Z,55.77
2019-03-09T10:07:29.266Z,56.04
2019-03-09T10:09:57.672Z,55.96
2019-03-09T10:12:26.115Z,56.47
2019-03-09T10:14:58.492Z,56.39
2019-03-09T10:17:34.608Z,56.19
2019-03-09T10:20:07.904Z,55.67
2019-03-09T10:22:48.979Z,56.82
2019-03-09T10:25:30.723Z,56.05
2019-03-09T10:28:00.387Z,55.96
2019-03-09T10:30:33.182Z,55.96
2019-03-09T10:33:02.739Z,56.21
2019-03-09T10:35:33.988Z,55.84
2019-03-09T10:38:04.568Z,56.60
2019-03-09T10:40:37.714Z,56.74
2019-03-09T10:43:12.914Z,57.38
2019-03-09T10:45:45.188Z,57.57
2019-03-09T10:48:16.085Z,57.92
2019-03-09T10:51:00.099Z,57.50
2019-03-09T10:53:28.782Z,57.33
2019-03-09T10:56:04.506Z,57.78
2019-03-09T10:58:42.185Z,58.41
2019-03-09T11:01:12.483Z,58.56
2019-03-09T11:03:47.880Z,59.02
2019-03-09T11:06:19.733Z,59.46
2019-03-09T11:08:48.231Z,58.91
2019-03-09T11:11:19.582Z,58.41
2019-03-09T11:13:52.229Z,58.11
2019-03-09T11:16:21.585Z,58.25
2019-03-09T11:18:54.957Z,57.60
2019-03-09T11:21:27.154Z,58.01
2019-03-09T11:24:02.959Z,57.66
2019-03-09T11:26:32.463Z,57.46
2019-03-09T11:29:10.134Z,58.02
2019-03-09T11:31:42.403Z,58.63
2019-03-09T11:34:23.835Z,58.61
2019-03-09T11:36:51.324Z,58.55
2019-03-09T11:39:20.568Z,58.59
2019-03-09T11:41:47.626Z,58.06
2019-03-09T11:44:15.511Z,58.51
2019-03-09T11:46:45.485Z,58.05
2019-03-09T11:49:13.834Z,57.64
2019-03-09T11:51:42.007Z,57.48
2019-03-09T11:54:15.703Z,57.59
2019-03-09T11:56:45.907Z,57.73
2019-03-09T11:59:13.379Z,57.36
2019-03-09T12:01:43.447Z,57.17
2019-03-09T12:04:11.524Z,56.77
2019-03-09T12:06:42.386Z,56.29
2019-03-09T12:09:11.792Z,56.52
2019-03-09T12:11:51.570Z,56.67
2019-03-09T12:14:18.716Z,57.42
2019-03-09T12:16:48.270Z,57.37
2019-03-09T12:19:15.260Z,56.52
2019-03-09T12:21:42.224Z,56.80
2019-03-09T12:24:16.457Z,57.25
2019-03-09T12:26:38.030Z,57.12
2019-03-09T12:29:04.882Z,57.28
2019-03-09T12:31:33.680Z,57.37
2019-03-09T12:34:01.738Z,57.69
2019-03-09T12:36:28.862Z,58.08
2019-03-09T12:38:55.841Z,57.77
2019-03-09T12:41:23.509Z,57.70
2019-03-09T12:43:50.396Z,57.68
2019-03-09T12:46:17.176Z,56.76
2019-03-09T12:48:43.937Z,56.69
2019-03-09T12:51:10.906Z,56.30
2019-03-09T12:53:37.914Z,56.76
2019-03-09T12:56:04.971Z,55.79
2019-03-09T12:58:31.787Z,55.69
2019-03-09T13:00:58.671Z,55.16
2019-03-09T13:03:25.515Z,54.60
2019-03-09T13:05:52.965Z,54.21
2019-03-09T13:08:19.466Z,54.46
2019-03-09T13:10:46.262Z,54.71
2019-03-09T13:13:14.253Z,54.58
2019-03-09T13:15:41.195Z,54.83
2019-03-09T13:18:09.872Z,54.66
2019-03-09T13:20:38.872Z,54.46
2019-03-09T13:23:08.093Z,54.26
2019-03-09T13:25:42.454Z,53.61
2019-03-09T13:28:15.241Z,53.45
2019-03-09T13:30:42.672Z,52.64
2019-03-09T13:33:09.546Z,52.24
2019-03-09T13:35:38.432Z,52.44
2019-03-09T13:38:05.151Z,51.80
2019-03-09T13:40:31.853Z,52.18
2019-03-09T13:42:58.572Z,51.35
2019-03-09T13:45:25.766Z,52.27
2019-03-09T13:47:52.633Z,53.05
2019-03-09T13:50:22.441Z,52.87
2019-03-09T13:52:49.265Z,52.15
2019-03-09T13:55:16.332Z,51.53
2019-03-09T13:57:43.157Z,51.85
2019-03-09T14:00:11.099Z,51.96
2019-03-09T14:02:38.158Z,52.46
2019-03-09T14:05:05.301Z,52.44
2019-03-09T14:07:32.144Z,52.82
2019-03-09T14:09:58.971Z,52.80
2019-03-09T14:12:25.580Z,52.49
2019-03-09T14:14:52.249Z,52.70
2019-03-09T14:17:19.314Z,52.62
2019-03-09T14:19:46.157Z,51.86
2019-03-09T14:22:13.067Z,52.28
2019-03-09T14:24:40.062Z,52.39
2019-03-09T14:27:07.609Z,52.31
2019-03-09T14:29:34.356Z,52.49
2019-03-09T14:32:01.094Z,52.49
2019-03-09T14:34:30.018Z,51.52
2019-03-09T14:36:56.829Z,52.65
2019-03-09T14:39:23.420Z,53.71
2019-03-09T14:41:50.404Z,54.18
2019-03-09T14:44:17.138Z,53.42
2019-03-09T14:46:44.142Z,53.52
2019-03-09T14:49:11.132Z,53.37
2019-03-09T14:51:37.912Z,54.10
2019-03-09T14:54:05.084Z,54.10
2019-03-09T14:56:31.892Z,54.82
2019-03-09T14:58:58.938Z,54.81
2019-03-09T15:01:25.864Z,54.86
2019-03-09T15:03:52.611Z,55.22
2019-03-09T15:06:19.539Z,56.07
2019-03-09T15:08:46.397Z,56.80
2019-03-09T15:11:14.280Z,57.22
2019-03-09T15:13:41.314Z,57.45
2019-03-09T15:16:08.810Z,57.83
2019-03-09T15:18:35.426Z,57.82
2019-03-09T15:21:02.394Z,58.14
2019-03-09T15:23:30.151Z,59.34
2019-03-09T15:25:56.891Z,62.37
2019-03-09T15:28:23.450Z,63.34
2019-03-09T15:30:53.422Z,63.60
2019-03-09T15:33:21.768Z,62.68
2019-03-09T15:35:48.990Z,62.74
2019-03-09T15:38:15.689Z,62.45
2019-03-09T15:40:42.870Z,61.85
2019-03-09T15:43:09.700Z,61.53
2019-03-09T15:45:37.532Z,61.42
2019-03-09T15:48:04.515Z,61.18
2019-03-09T15:50:31.854Z,60.62
2019-03-09T15:52:59.017Z,60.12
2019-03-09T15:55:25.724Z,60.22
2019-03-09T15:57:52.450Z,60.01
2019-03-09T16:00:20.273Z,59.81
2019-03-09T16:02:47.130Z,59.74
2019-03-09T16:05:13.858Z,59.87
2019-03-09T16:07:40.679Z,59.58
2019-03-09T16:10:08.937Z,60.00
2019-03-09T16:12:36.480Z,59.89
2019-03-09T16:15:04.608Z,61.48
2019-03-09T16:17:31.849Z,64.74
2019-03-09T16:19:59.448Z,67.87
2019-03-09T16:22:26.054Z,70.64
2019-03-09T16:24:52.935Z,71.69
2019-03-09T16:27:20.603Z,73.61
2019-03-09T16:29:47.898Z,73.80
2019-03-09T16:32:14.808Z,74.78
2019-03-09T16:34:41.452Z,75.21
2019-03-09T16:37:08.645Z,75.26
2019-03-09T16:39:35.372Z,75.14
2019-03-09T16:42:02.300Z,74.65
2019-03-09T16:44:28.980Z,74.79
2019-03-09T16:46:58.706Z,75.03
2019-03-09T16:49:25.715Z,75.38
2019-03-09T16:51:52.278Z,75.69
2019-03-09T16:54:19.044Z,76.33
2019-03-09T16:56:46.291Z,76.64
2019-03-09T16:59:13.413Z,76.16
2019-03-09T17:01:40.042Z,75.92
2019-03-09T17:04:06.712Z,76.73
2019-03-09T17:06:33.433Z,77.98
2019-03-09T17:09:00.151Z,80.37
2019-03-09T17:11:27.135Z,81.72
2019-03-09T17:13:53.833Z,82.04
2019-03-09T17:16:20.514Z,82.17
2019-03-09T17:18:47.217Z,80.23
2019-03-09T17:21:14.049Z,79.63
2019-03-09T17:23:40.994Z,79.29
2019-03-09T17:26:07.687Z,79.02
2019-03-09T17:28:34.380Z,79.08
2019-03-09T17:31:01.102Z,77.40
2019-03-09T17:33:27.712Z,76.50
2019-03-09T17:35:54.646Z,76.16
2019-03-09T17:38:21.300Z,75.17
2019-03-09T17:40:47.871Z,74.26
2019-03-09T17:43:14.399Z,73.17
2019-03-09T17:45:40.903Z,73.72
2019-03-09T17:48:08.797Z,73.76
2019-03-09T17:50:36.354Z,73.44
2019-03-09T17:53:07.254Z,73.37
2019-03-09T17:55:34.960Z,73.88
2019-03-09T17:58:02.606Z,73.85
2019-03-09T18:00:42.027Z,73.71
2019-03-09T18:03:03.663Z,74.34
2019-03-09T18:05:32.383Z,74.89
2019-03-09T18:08:00.071Z,78.28
2019-03-09T18:10:32.719Z,82.29
2019-03-09T18:13:00.678Z,87.61
2019-03-09T18:15:28.870Z,89.89
2019-03-09T18:17:55.688Z,91.09
2019-03-09T18:20:24.271Z,90.62
2019-03-09T18:22:50.930Z,90.45
2019-03-09T18:25:17.482Z,88.71
2019-03-09T18:27:44.102Z,88.57
2019-03-09T18:30:10.979Z,87.70
2019-03-09T18:32:37.630Z,87.93
2019-03-09T18:35:04.645Z,86.37
2019-03-09T18:37:31.705Z,86.05
2019-03-09T18:39:58.418Z,86.26
2019-03-09T18:42:25.114Z,84.17
2019-03-09T18:44:52.160Z,83.99
2019-03-09T18:47:19.189Z,82.62
2019-03-09T18:49:45.800Z,81.13
2019-03-09T18:52:12.541Z,80.67
2019-03-09T18:54:39.117Z,80.43
2019-03-09T18:57:06.333Z,79.05
2019-03-09T18:59:32.934Z,78.57
2019-03-09T19:02:00.817Z,78.94
2019-03-09T19:04:27.352Z,78.20
2019-03-09T19:06:55.095Z,77.43
2019-03-09T19:09:23.300Z,76.64
2019-03-09T19:11:50.026Z,76.37
2019-03-09T19:14:16.673Z,75.77
2019-03-09T19:16:44.224Z,75.02
2019-03-09T19:19:10.907Z,72.95
2019-03-09T19:21:37.531Z,73.11
2019-03-09T19:24:04.299Z,73.38
2019-03-09T19:26:30.913Z,72.45
2019-03-09T19:28:58.649Z,71.67
2019-03-09T19:31:25.386Z,72.49
2019-03-09T19:33:52.273Z,73.17
2019-03-09T19:36:18.827Z,72.37
2019-03-09T19:38:45.937Z,72.27
2019-03-09T19:41:12.465Z,72.16
2019-03-09T19:43:39.086Z,72.32
2019-03-09T19:46:05.775Z,71.60
2019-03-09T19:48:32.683Z,71.83
2019-03-09T19:50:59.439Z,71.94
2019-03-09T19:53:25.973Z,71.95
2019-03-09T19:55:52.633Z,71.73
2019-03-09T19:58:19.728Z,71.27
2019-03-09T20:00:46.316Z,70.80
2019-03-09T20:03:12.959Z,71.14
2019-03-09T20:05:41.568Z,69.94
2019-03-09T20:08:29.529Z,70.82
2019-03-09T20:10:56.690Z,71.35
2019-03-09T20:13:23.334Z,70.63
2019-03-09T20:15:51.979Z,70.49
2019-03-09T20:18:18.517Z,70.34
2019-03-09T20:20:46.160Z,71.00
2019-03-09T20:23:13.016Z,71.04
2019-03-09T20:25:39.831Z,70.45
2019-03-09T20:28:07.038Z,70.75
2019-03-09T20:30:33.647Z,71.04
2019-03-09T20:33:00.540Z,70.30
2019-03-09T20:35:27.244Z,69.90
2019-03-09T20:37:57.475Z,70.08
2019-03-09T20:40:29.000Z,70.39
2019-03-09T20:42:58.268Z,70.79
2019-03-09T20:45:27.459Z,70.21
2019-03-09T20:47:56.220Z,70.33
2019-03-09T20:50:25.809Z,70.49
2019-03-09T20:52:55.663Z,70.46
2019-03-09T20:55:23.899Z,70.11
2019-03-09T20:57:53.109Z,69.89
2019-03-09T21:00:22.045Z,70.12
2019-03-09T21:02:52.076Z,70.56
2019-03-09T21:05:20.633Z,70.24
2019-03-09T21:07:48.290Z,70.86
2019-03-09T21:10:17.959Z,71.00
2019-03-09T21:13:00.649Z,70.91
2019-03-09T21:15:36.021Z,70.68
2019-03-09T21:18:06.822Z,71.24
2019-03-09T21:20:34.379Z,70.98
2019-03-09T21:23:01.465Z,71.66
2019-03-09T21:25:29.727Z,71.36
2019-03-09T21:27:56.547Z,71.58
2019-03-09T21:30:25.885Z,71.18
2019-03-09T21:32:54.758Z,71.58
2019-03-09T21:35:22.778Z,71.21
2019-03-09T21:37:49.357Z,71.47
2019-03-09T21:40:16.382Z,71.13
2019-03-09T21:42:43.206Z,70.71
2019-03-09T21:45:10.069Z,70.86
2019-03-09T21:47:36.878Z,70.83
2019-03-09T21:50:03.936Z,71.20
2019-03-09T21:52:31.619Z,70.87
2019-03-09T21:54:59.508Z,71.05
2019-03-09T21:57:27.315Z,71.41
2019-03-09T21:59:54.075Z,71.48
2019-03-09T22:02:20.684Z,72.05
2019-03-09T22:04:47.654Z,72.00
2019-03-09T22:07:14.591Z,71.77
2019-03-09T22:09:41.616Z,72.10
2019-03-09T22:12:08.389Z,71.88
2019-03-09T22:14:35.047Z,71.57
2019-03-09T22:17:01.605Z,71.59
2019-03-09T22:19:28.272Z,71.92
2019-03-09T22:21:54.853Z,71.89
2019-03-09T22:24:22.458Z,71.37
2019-03-09T22:26:49.582Z,71.09
2019-03-09T22:29:16.368Z,71.00
2019-03-09T22:31:43.110Z,71.32
2019-03-09T22:34:09.683Z,71.42
2019-03-09T22:36:36.508Z,70.93
2019-03-09T22:39:04.298Z,71.45
2019-03-09T22:41:30.813Z,71.69
2019-03-09T22:43:57.842Z,71.56
2019-03-09T22:46:24.718Z,71.63
2019-03-09T22:48:51.254Z,71.90
2019-03-09T22:51:18.076Z,72.21
2019-03-09T22:53:44.613Z,72.53
2019-03-09T22:56:11.224Z,72.77
2019-03-09T22:58:37.877Z,72.65
2019-03-09T23:01:04.703Z,73.23
2019-03-09T23:03:31.741Z,73.18
2019-03-09T23:05:58.368Z,73.43
2019-03-09T23:08:25.170Z,73.29
2019-03-09T23:10:51.788Z,73.58
2019-03-09T23:13:18.360Z,73.90
2019-03-09T23:15:44.977Z,73.82
2019-03-09T23:18:11.520Z,74.05
2019-03-09T23:20:39.533Z,74.00
2019-03-09T23:23:06.374Z,74.14
2019-03-09T23:25:33.147Z,74.27
2019-03-09T23:27:59.769Z,73.96
2019-03-09T23:30:26.305Z,74.22
2019-03-09T23:32:54.088Z,74.03
2019-03-09T23:35:20.848Z,74.06
2019-03-09T23:37:47.798Z,73.82
2019-03-09T23:40:14.618Z,73.60
2019-03-09T23:42:41.176Z,73.68
2019-03-09T23:45:09.227Z,73.45
2019-03-09T23:47:36.198Z,73.27
2019-03-09T23:50:03.241Z,73.41
2019-03-09T23:52:29.945Z,73.25
2019-03-09T23:54:56.553Z,72.96
2019-03-09T23:57:23.125Z,73.13
2019-03-09T23:59:49.860Z,73.29
